createdAt,value
2022-10-15T00:06:16.014Z,10.90
2022-10-15T00:20:16.022Z,10.10
2022-10-15T00:34:16.033Z,10.40
2022-10-15T00:48:16.054Z,10.25
2022-10-15T01:02:16.027Z,10.20
2022-10-15T01:16:16.044Z,10.50
2022-10-15T01:30:16.051Z,10.00
2022-10-15T01:44:16.052Z,10.50
2022-10-15T01:58:16.069Z,10.10
2022-10-15T02:12:16.042Z,11.10
2022-10-15T02:26:16.099Z,11.20
2022-10-15T02:40:16.080Z,11.20
2022-10-15T02:54:16.191Z,11.70
2022-10-15T03:08:16.547Z,11.80
2022-10-15T03:22:16.534Z,12.00
2022-10-15T03:36:16.519Z,11.50
2022-10-15T03:50:16.627Z,11.80
2022-10-15T04:04:16.637Z,12.90
2022-10-15T04:18:16.668Z,12.50
2022-10-15T04:32:16.678Z,13.20
2022-10-15T04:46:16.961Z,13.50
2022-10-15T05:00:16.987Z,13.80
2022-10-15T05:14:16.993Z,13.40
2022-10-15T05:29:17.004Z,13.80
2022-10-15T05:44:17.010Z,13.60
2022-10-15T05:59:16.990Z,13.30
2022-10-15T06:14:16.992Z,13.55
2022-10-15T06:29:17.025Z,17.90
2022-10-15T06:44:17.030Z,23.20
2022-10-15T06:59:17.019Z,21.20
2022-10-15T07:14:17.028Z,22.20
2022-10-15T07:29:17.048Z,18.00
2022-10-15T07:44:17.299Z,17.40
2022-10-15T07:59:17.309Z,19.90
2022-10-15T08:15:17.297Z,17.90
2022-10-15T08:30:17.303Z,16.10
2022-10-15T08:45:17.301Z,16.90
2022-10-15T09:00:17.359Z,19.30
2022-10-15T09:15:17.454Z,23.90
2022-10-15T09:30:17.446Z,21.70
2022-10-15T09:45:17.462Z,20.00
2022-10-15T10:00:17.458Z,22.20
2022-10-15T10:15:17.468Z,23.30
2022-10-15T10:30:17.474Z,24.00
2022-10-15T10:45:18.633Z,24.50
2022-10-15T11:00:17.496Z,24.30
2022-10-15T11:15:17.481Z,25.10
2022-10-15T11:30:17.474Z,25.00
2022-10-15T11:45:17.498Z,25.60
2022-10-15T12:01:17.493Z,22.60
2022-10-15T12:16:17.512Z,24.15
2022-10-15T12:31:17.525Z,25.10
2022-10-15T12:46:17.527Z,22.90
2022-10-15T13:01:17.606Z,22.80
2022-10-15T13:16:17.512Z,21.60
2022-10-15T13:31:17.523Z,21.40
2022-10-15T13:46:17.509Z,27.50
2022-10-15T14:01:17.601Z,24.60
2022-10-15T14:16:18.447Z,22.80
2022-10-15T14:31:17.667Z,23.20
2022-10-15T14:46:18.048Z,19.90
2022-10-15T15:01:17.585Z,18.40
2022-10-15T15:16:17.597Z,17.90
2022-10-15T15:31:17.599Z,19.60
2022-10-15T15:46:17.600Z,21.80
2022-10-15T16:01:17.640Z,21.70
2022-10-15T16:16:17.612Z,23.90
2022-10-15T16:32:17.670Z,25.20
2022-10-15T16:47:17.644Z,21.80
2022-10-15T17:02:17.637Z,21.30
2022-10-15T17:16:17.627Z,19.30
2022-10-15T17:30:17.613Z,18.50
2022-10-15T17:44:17.616Z,18.00
2022-10-15T17:58:17.630Z,18.20
2022-10-15T18:12:17.662Z,17.30
2022-10-15T18:26:18.813Z,16.80
2022-10-15T18:40:17.650Z,19.70
2022-10-15T18:54:17.645Z,30.00
2022-10-15T19:08:20.586Z,33.60
2022-10-15T19:22:17.686Z,37.30
2022-10-15T19:36:17.667Z,33.20
2022-10-15T19:50:17.668Z,32.40
2022-10-15T20:04:17.671Z,30.50
2022-10-15T20:18:17.685Z,28.90
2022-10-15T20:32:30.209Z,28.20
2022-10-15T20:46:17.680Z,30.00
2022-10-15T21:00:17.693Z,28.40
2022-10-15T21:14:17.694Z,29.00
2022-10-15T21:28:17.819Z,29.60
2022-10-15T21:42:17.733Z,28.90
2022-10-15T21:56:17.736Z,25.80
2022-10-15T22:10:17.744Z,24.15
2022-10-15T22:24:17.745Z,25.00
2022-10-15T22:38:17.727Z,25.35
2022-10-15T22:52:17.769Z,25.00
2022-10-15T23:06:17.756Z,22.70
2022-10-15T23:20:17.745Z,21.30
2022-10-15T23:34:17.740Z,22.30
2022-10-15T23:48:17.744Z,20.60
